Etusivu
METAR-TAF:

METAR-TAF

Lentoasemat :

Ouagadougou, Burkina Faso

Ouagadougoun kansainvälinen lentoasema

Leveyspiiri: 12-21N, Pituuspiiri: 001-31W, korkeus merenpinnasta: 316 m

Tämänhetkinen sää

Tämä raportti tehtiin 52 minuuttia sitten, kello 21.00 UTC
tyyntä
Lämpötila 25°C
Kosteus 34%
Ilmanpaine 1014 hPa
Näkyvyys: 8000 m

METAR: DFFD 122100Z 00000KT 8000 NSC 25/08 Q1014 NOSIG

Aika: 21:52 (21:52 UTC)

Sääennuste

Tämä raportti tehtiin 4 tuntia ja 52 minuuttia sitten, kello 17.00 UTC
Ennuste voimassa 12. päivästä klo 18 UTC - 13. päivään klo 24 UTC
Tuuli 8 kn idästä/kaakosta
Näkyvyys: 8000 m
Ajoittain
12. päivästä klo 18 UTC - 12. päivään klo 20 UTC
Näkyvyys: 4000 m
usvaa
Ajoittain
13. päivästä klo 06 UTC - 13. päivään klo 10 UTC
Näkyvyys: 3500 m
usvaa

TAF: DFFD 121700Z 1218/1324 12008KT 8000 NSC TEMPO 1218/1220 4000 HZ TEMPO 1306/1310 3500 HZ

Säähavainnot ja -ennusteet yli 4000 lentoasemalta (METAR- ja TAF-raportit).

Käytössä olevat sääasemat on merkitty karttaan keltaisilla ja punaisilla pisteillä.

Aseta hiiri pisteen päälle nähdäksesi sääaseman nimen.

Klikkaa sitten nähdäksesi säähavainnot ja -ennusteet.

Kartan vaihtaminen: klikkaa mustalla rastilla varustettuja vihreitä pisteitä, niin voit zoomata sisään; viivalla varustettua vihreää pistettä, niin voit zoomata ulos tai vihreitä nuolia, niin pääset viereisille kartoille.


METAR-TAF: